Latest Weather Observations for Hobart

IDT60901

Issued at 11:21 am EST Sunday 26 April 2015 (issued every 10 minutes, with the page automatically refreshed every 10 minutes)

About weather observations | Map of Hobart area stations | Latest observations for Hobart area | Other Formats
Station Details ID: 094029 Name: HOBART (ELLERSLIE ROAD) Lat: -42.89 Lon: 147.33 Height: 50.5 m
Data from the previous 72 hours. | See also: Recent months at Hobart
Date/Time
EST
Tmp

°C
App
Tmp
°C
Dew
Point
°C
Rel
Hum
%
Delta-T

°C
Wind Press
QNH
hPa
Press
MSL
hPa
Rain
since
9 am
mm
Dir
 
Spd
km/h
Gust
km/h
Spd
kts
Gust
kts
26/11:00am 12.5 8.9 2.7 51 4.3 N 11 17 6 9 1012.6 1012.6 0.0
26/10:30am 12.2 7.4 2.6 52 4.2 NNW 17 24 9 13 1012.8 1012.8 0.0
26/10:00am 11.7 6.9 2.5 53 4.0 NNW 17 22 9 12 1013.1 1013.1 0.0
26/09:30am 11.1 8.4 3.6 60 3.3 N 7 11 4 6 1013.4 1013.4 0.0
26/09:00am 9.7 7.6 3.8 66 2.6 SSE 4 11 2 6 1013.7 1013.7 0.0
26/08:30am 9.1 6.0 3.8 69 2.3 NNW 9 11 5 6 1013.7 1013.7 0.0
26/08:00am 8.6 7.0 4.5 75 1.8 ENE 2 11 1 6 1013.6 1013.6 0.0
26/07:30am 7.9 6.6 4.0 76 1.7 CALM 0 7 0 4 1013.4 1013.4 0.0
26/07:00am 7.7 4.6 3.8 76 1.7 N 9 11 5 6 1013.0 1013.0 0.0
26/06:30am 7.9 5.9 4.2 77 1.6 N 4 9 2 5 1012.9 1012.9 0.0
26/06:00am 8.6 4.5 2.1 63 2.7 SW 13 20 7 11 1012.7 1012.9 0.0
26/05:30am 7.7 3.0 3.2 73 1.9 SW 17 24 9 13 1012.7 1012.7 0.0
26/05:00am 7.3 4.1 5.3 87 0.9 W 11 15 6 8 1012.9 1012.9 0.0
26/04:30am 7.9 5.2 5.7 86 1.0 WNW 9 15 5 8 1012.8 1012.8 0.0
26/04:00am 8.9 6.0 6.5 85 1.1 NW 11 13 6 7 1012.7 1012.7 0.0
26/03:30am 9.1 5.8 4.6 73 2.0 WNW 11 19 6 10 1012.9 1012.9 0.0
26/03:00am 9.2 6.8 5.2 76 1.8 WNW 7 9 4 5 1013.1 1013.1 0.0
26/02:30am 9.2 7.3 6.9 85 1.1 WNW 6 9 3 5 1013.2 1013.2 0.0
26/02:00am 9.3 6.6 7.2 87 1.0 NNW 11 15 6 8 1013.3 1013.3 0.0
26/01:30am 9.1 7.1 7.2 88 0.9 NW 7 17 4 9 1013.4 1013.4 0.0
26/01:00am 9.3 7.3 7.0 85 1.1 NW 7 11 4 6 1013.4 1013.4 0.0
26/12:30am 9.5 6.9 6.0 79 1.6 WNW 9 13 5 7 1013.5 1013.5 0.0
26/12:00am 9.5 6.7 5.3 75 1.9 WSW 9 15 5 8 1013.3 1013.3 0.0
 
Date/Time
EST
Tmp

°C
App
Tmp
°C
Dew
Point
°C
Rel
Hum
%
Delta-T

°C
Wind Press
QNH
hPa
Press
MSL
hPa
Rain
since
9 am
mm
Dir
 
Spd
km/h
Gust
km/h
Spd
kts
Gust
kts
25/11:30pm 9.7 6.4 4.8 71 2.2 WSW 11 20 6 11 1013.4 1013.4 0.0
25/11:00pm 9.6 8.2 5.4 75 1.9 NNE 2 9 1 5 1013.6 1013.6 0.0
25/10:30pm 9.6 7.1 4.9 72 2.1 SW 7 11 4 6 1013.6 1013.6 0.0
25/10:00pm 9.6 7.4 5.2 74 2.0 S 6 9 3 5 1013.7 1013.7 0.0
25/09:30pm 9.5 7.2 5.6 76 1.8 S 7 11 4 6 1013.8 1013.8 0.0
25/09:00pm 9.5 7.2 5.8 78 1.7 SSW 7 13 4 7 1013.8 1013.8 0.0
25/08:30pm 9.4 6.1 6.2 80 1.5 S 13 17 7 9 1013.7 1013.7 0.0
25/08:00pm 9.7 6.7 5.8 77 1.8 SSW 11 17 6 9 1013.6 1013.6 0.0
25/07:30pm 9.7 7.1 6.3 79 1.6 SSW 9 11 5 6 1013.4 1013.4 0.0
25/07:00pm 9.9 6.6 6.2 78 1.7 S 13 17 7 9 1013.3 1013.3 0.0
25/06:30pm 9.9 6.6 6.2 78 1.7 SSW 13 19 7 10 1012.9 1012.9 0.0
25/06:00pm 9.8 6.6 6.8 81 1.4 SSW 13 20 7 11 1012.5 1012.5 0.0
25/05:30pm 9.8 6.3 7.3 84 1.2 SSW 15 22 8 12 1012.3 1012.3 0.0
25/05:00pm 10.2 7.8 7.0 80 1.5 SSW 9 15 5 8 1011.9 1011.9 0.0
25/04:30pm 10.4 7.3 7.3 81 1.5 SW 13 20 7 11 1011.8 1011.8 0.0
25/04:00pm 10.9 7.6 6.4 74 2.1 SSW 13 20 7 11 1011.5 1011.5 0.0
25/03:30pm 11.4 7.2 5.8 68 2.6 SSW 17 28 9 15 1011.3 1011.3 0.0
25/03:00pm 11.6 7.7 5.3 65 2.9 S 15 20 8 11 1011.1 1011.1 0.0
25/02:30pm 11.8 7.6 5.6 66 2.9 S 17 26 9 14 1010.8 1010.7 0.0
25/02:00pm 12.1 7.8 5.2 62 3.2 SSW 17 24 9 13 1010.5 1010.4 0.0
25/01:30pm 12.2 7.2 4.8 60 3.4 S 20 30 11 16 1010.4 1010.3 0.0
25/01:00pm 12.1 7.1 4.4 59 3.5 SSW 20 28 11 15 1010.5 1010.4 0.0
25/12:30pm 13.1 8.2 4.9 57 3.8 S 20 32 11 17 1010.5 1010.4 0.0
25/12:00pm 11.7 7.8 5.2 64 3.0 S 15 22 8 12 1010.7 1010.6 0.0
25/11:30am 11.5 6.9 5.5 66 2.8 SSE 19 32 10 17 1010.7 1010.6 0.0
25/11:00am 11.3 7.2 6.0 70 2.5 S 17 28 9 15 1010.8 1010.7 0.0
25/10:30am 11.3 6.3 6.4 72 2.3 S 22 32 12 17 1010.7 1010.6 0.0
25/10:00am 10.7 6.2 7.1 78 1.7 S 20 32 11 17 1010.7 1010.6 0.0
25/09:30am 10.9 8.4 8.2 83 1.3 S 11 19 6 10 1010.4 1010.3 0.0
25/09:00am 10.3 6.7 8.5 89 0.9 S 17 30 9 16 1010.1 1010.1 1.2
25/08:30am 10.4 7.0 9.0 91 0.7 SSE 17 26 9 14 1009.8 1009.8 1.2
25/08:00am 10.6 8.3 9.0 90 0.8 S 11 19 6 10 1009.4 1009.4 1.0
25/07:30am 10.3 6.9 9.3 93 0.5 S 17 22 9 12 1008.8 1008.8 1.0
25/07:00am 11.2 7.5 7.9 80 1.6 S 17 24 9 13 1008.4 1008.4 1.0
25/06:30am 11.1 10.5 7.6 79 1.7 CALM 0 0 0 0 1007.7 1007.7 1.0
25/06:00am 10.9 10.1 8.3 84 1.3 WSW 2 9 1 5 1007.2 1007.2 1.0
25/05:30am 11.1 8.6 8.0 81 1.5 SSW 11 15 6 8 1006.8 1006.8 1.0
25/05:00am 11.6 7.8 7.7 77 1.9 S 17 24 9 13 1006.6 1006.6 1.0
25/04:30am 11.5 7.8 8.0 79 1.7 SSW 17 24 9 13 1006.3 1006.3 1.0
25/04:00am 11.6 7.5 7.9 78 1.8 SSW 19 24 10 13 1006.0 1006.0 1.0
25/03:30am 11.8 8.7 7.3 74 2.2 S 13 19 7 10 1005.6 1005.6 1.0
25/03:00am 11.7 11.0 8.5 81 1.6 SSE 2 9 1 5 1005.4 1005.4 1.0
25/02:30am 12.0 10.9 10.1 88 1.0 WNW 6 7 3 4 1005.4 1005.4 1.0
25/02:00am 12.2 10.8 9.4 83 1.4 NE 7 9 4 5 1005.2 1005.2 1.0
25/01:30am 12.3 10.2 8.3 76 2.0 W 9 17 5 9 1005.1 1005.1 1.0
25/01:00am 12.1 10.9 10.4 89 0.9 W 7 11 4 6 1005.0 1005.0 1.0
25/12:30am 12.3 10.5 9.3 82 1.5 WSW 9 13 5 7 1004.8 1004.8 1.0
25/12:00am 12.1 10.9 10.4 89 0.9 SW 7 9 4 5 1004.7 1004.7 1.0
 
Date/Time
EST
Tmp

°C
App
Tmp
°C
Dew
Point
°C
Rel
Hum
%
Delta-T

°C
Wind Press
QNH
hPa
Press
MSL
hPa
Rain
since
9 am
mm
Dir
 
Spd
km/h
Gust
km/h
Spd
kts
Gust
kts
24/11:30pm 12.2 11.1 10.5 89 0.9 WSW 7 9 4 5 1004.5 1004.5 1.0
24/11:00pm 12.2 11.2 10.3 88 1.0 NNE 6 7 3 4 1004.4 1004.4 1.0
24/10:30pm 12.4 11.2 10.3 87 1.1 SSW 7 7 4 4 1004.3 1004.3 1.0
24/10:00pm 12.6 11.0 10.1 85 1.3 SSW 9 17 5 9 1004.2 1004.2 1.0
24/09:30pm 12.5 11.3 10.4 87 1.1 WNW 7 9 4 5 1004.1 1004.1 1.0
24/09:00pm 12.8 11.2 10.3 85 1.3 SSW 9 17 5 9 1003.8 1003.8 1.0
24/08:30pm 13.0 11.5 10.5 85 1.3 SSW 9 15 5 8 1003.7 1003.7 1.0
24/08:00pm 13.3 10.6 10.2 81 1.6 SSE 15 20 8 11 1003.5 1003.5 1.0
24/07:30pm 13.4 10.7 10.5 82 1.5 S 15 20 8 11 1003.3 1003.3 1.0
24/07:00pm 13.4 12.9 10.9 85 1.3 S 4 9 2 5 1003.2 1003.2 1.0
24/06:30pm 13.4 12.0 10.9 85 1.3 SSW 9 13 5 7 1003.0 1003.0 1.0
24/06:00pm 13.4 12.1 11.1 86 1.2 SSE 9 11 5 6 1002.7 1002.7 1.0
24/05:30pm 13.6 12.3 11.2 85 1.3 SSW 9 11 5 6 1002.3 1002.3 1.0
24/05:00pm 13.8 12.6 11.6 86 1.2 SE 9 13 5 7 1001.9 1001.9 1.0
24/04:30pm 13.9 12.3 11.5 85 1.3 SE 11 15 6 8 1001.7 1001.7 1.0
24/04:00pm 14.3 12.8 10.7 79 1.9 ESE 9 11 5 6 1001.9 1001.9 1.0
24/03:30pm 15.0 14.0 10.3 73 2.5 NE 6 7 3 4 1001.9 1001.9 1.0
24/03:00pm 15.1 13.4 10.0 71 2.7 WNW 9 11 5 6 1002.1 1002.1 1.0
24/02:30pm 14.8 13.1 10.0 73 2.5 NW 9 13 5 7 1002.3 1002.3 1.0
24/02:00pm 14.5 12.9 10.3 76 2.2 NW 9 13 5 7 1002.5 1002.5 1.0
24/01:30pm 15.2 14.1 10.7 74 2.4 NNW 7 13 4 7 1002.7 1002.7 1.0
24/01:00pm 14.5 13.0 10.7 78 2.0 NNW 9 15 5 8 1002.8 1002.8 1.0
24/12:30pm 14.7 13.6 10.7 77 2.1 N 7 13 4 7 1003.3 1003.3 1.0
24/12:00pm 15.2 13.9 11.3 77 2.1 NNW 9 13 5 7 1003.7 1003.7 1.0
24/11:30am 13.6 12.6 11.0 84 1.4 N 7 9 4 5 1004.0 1004.0 1.0
24/11:00am 13.1 11.9 11.6 91 0.8 NNW 9 11 5 6 1004.3 1004.3 1.0
24/10:30am 12.7 13.1 11.4 92 0.7 CALM 0 0 0 0 1004.7 1004.7 1.0
24/10:00am 12.2 12.6 11.1 93 0.6 CALM 0 0 0 0 1005.0 1005.0 0.8
24/09:30am 12.2 12.6 11.1 93 0.6 CALM 0 0 0 0 1005.5 1005.5 0.4
24/09:00am 11.9 11.8 10.7 92 0.6 W 2 6 1 3 1005.8 1005.8 1.6
24/08:30am 11.7 9.9 10.7 94 0.5 WNW 11 19 6 10 1006.1 1006.1 1.0
24/08:00am 11.5 10.3 10.3 92 0.6 NW 7 11 4 6 1006.2 1006.2 0.4
24/07:30am 11.4 9.9 10.6 95 0.4 NW 9 13 5 7 1006.1 1006.1 0.4
24/07:00am 11.2 9.6 10.2 94 0.5 NW 9 13 5 7 1006.1 1006.1 0.4
24/06:30am 11.2 10.0 10.2 94 0.5 NW 7 11 4 6 1006.3 1006.3 0.4
24/06:00am 11.2 9.6 10.2 94 0.5 NW 9 13 5 7 1006.4 1006.4 0.4
24/05:30am 10.9 9.6 9.9 93 0.5 W 7 9 4 5 1006.6 1006.6 0.4
24/05:00am 10.9 9.6 10.1 95 0.4 W 7 9 4 5 1006.8 1006.8 0.4
24/04:30am 11.1 9.8 10.1 94 0.5 WNW 7 9 4 5 1006.9 1006.9 0.4
24/04:00am 11.4 10.4 10.2 92 0.6 W 6 9 3 5 1007.1 1007.1 0.4
24/03:30am 11.5 10.0 10.5 94 0.5 WSW 9 9 5 5 1007.4 1007.4 0.4
24/03:00am 11.9 11.4 10.9 94 0.5 W 4 9 2 5 1007.9 1007.9 0.4
24/02:30am 12.2 11.4 10.9 92 0.7 NNW 6 9 3 5 1008.3 1008.3 0.4
24/02:00am 12.1 11.1 11.0 93 0.6 W 7 9 4 5 1008.6 1008.6 0.4
24/01:30am 12.2 12.6 11.3 94 0.5 CALM 0 6 0 3 1009.2 1009.2 0.4
24/01:00am 12.3 12.6 11.0 92 0.7 CALM 0 0 0 0 1009.8 1009.8 0.4
24/12:30am 12.5 12.0 10.8 89 0.9 WSW 4 7 2 4 1010.4 1010.3 0.0
24/12:00am 12.6 12.9 10.9 89 0.9 CALM 0 6 0 3 1011.0 1011.0 0.0
 
Date/Time
EST
Tmp

°C
App
Tmp
°C
Dew
Point
°C
Rel
Hum
%
Delta-T

°C
Wind Press
QNH
hPa
Press
MSL
hPa
Rain
since
9 am
mm
Dir
 
Spd
km/h
Gust
km/h
Spd
kts
Gust
kts
23/11:30pm 12.9 13.2 11.0 88 1.0 CALM 0 0 0 0 1011.6 1011.6 0.0
23/11:00pm 12.9 12.0 10.8 87 1.1 NNW 6 7 3 4 1012.1 1012.1 0.0
23/10:30pm 13.3 12.5 11.0 86 1.2 NNW 6 9 3 5 1012.5 1012.5 0.0
23/10:00pm 13.4 13.8 11.3 87 1.1 CALM 0 0 0 0 1013.2 1013.2 0.0
23/09:30pm 13.4 13.8 11.3 87 1.1 CALM 0 0 0 0 1013.6 1013.6 0.0
23/09:00pm 13.5 13.9 11.4 87 1.1 CALM 0 0 0 0 1014.0 1014.0 0.0
23/08:30pm 13.6 13.7 11.5 87 1.1 SE 2 6 1 3 1014.2 1014.2 0.0
23/08:00pm 13.7 12.9 11.6 87 1.1 SE 7 11 4 6 1014.7 1014.7 0.0
23/07:30pm 13.8 12.6 11.6 86 1.2 SE 9 11 5 6 1015.2 1015.2 0.0
23/07:00pm 13.9 13.0 11.5 85 1.3 SE 7 11 4 6 1015.6 1015.6 0.0
23/06:30pm 14.0 13.2 11.6 85 1.3 SE 7 11 4 6 1015.6 1015.6 0.0
23/06:00pm 14.0 12.7 11.4 84 1.4 ESE 9 11 5 6 1015.8 1015.8 0.0
23/05:30pm 14.0 12.8 11.6 85 1.3 SE 9 13 5 7 1015.7 1015.7 0.0
23/05:00pm 14.2 12.6 11.4 83 1.5 ESE 11 17 6 9 1016.0 1016.0 0.0
23/04:30pm 14.8 13.7 10.6 76 2.2 SE 7 13 4 7 1016.3 1016.3 0.0
23/04:00pm 14.8 13.4 10.8 77 2.1 SE 9 11 5 6 1016.7 1016.7 0.0
23/03:30pm 14.5 13.1 10.9 79 1.9 SE 9 13 5 7 1017.2 1017.2 0.0
23/03:00pm 14.7 12.9 10.9 78 2.0 SE 11 15 6 8 1017.7 1017.7 0.0
23/02:30pm 14.9 13.1 10.7 76 2.2 SE 11 15 6 8 1017.9 1017.9 0.0
23/02:00pm 14.9 13.4 10.7 76 2.2 SE 9 11 5 6 1018.4 1018.4 0.0
23/01:30pm 14.7 13.2 10.5 76 2.2 ESE 9 13 5 7 1018.8 1018.8 0.0
23/01:00pm 14.9 13.8 10.7 76 2.2 SE 7 13 4 7 1019.2 1019.2 0.0
23/12:30pm 14.8 13.5 10.0 73 2.5 SE 7 11 4 6 1019.8 1019.8 0.0
23/12:00pm 14.7 13.6 10.5 76 2.2 ESE 7 11 4 6 1020.6 1020.6 0.0
23/11:30am 14.8 13.7 10.8 77 2.1 SE 7 9 4 5 1021.2 1021.2 0.0

Latest Capital City Observations: Canberra | Sydney | Melbourne | Brisbane | Adelaide | Perth | Hobart | Darwin

Other Formats:

Comma delimited format used in spreadsheet applications
http://www.bom.gov.au/fwo/IDT60901/IDT60901.94970.axf

JavaScript Object Notation format (JSON) in row-major order
http://www.bom.gov.au/fwo/IDT60901/IDT60901.94970.json